Impacts METAR Board
IDs:

KCLE - Cleveland/Hopkins In, OH, US

Updated at: 0800 UTC 24 Sep 2018
Potential Impact None Slight Moderate High
Time 23/20Z 23/21Z 23/22Z 23/23Z 24/00Z 24/01Z 24/02Z 24/03Z 24/04Z 24/05Z 24/06Z 24/07Z 24/08Z
Temp71 71 69 67 64 64 63 61 61 60 58 59 58
Dewpt54 55 56 56 57 55 55 55 55 54 54 54 54
Altim30.18 30.17 30.18 30.18 30.19 30.20 30.21 30.23 30.23 30.23 30.22 30.21 30.21
VIS10 10 10 10 10 10 10 10 10 10 10 10 10
CIG-- -- -- -- -- -- -- -- -- 250 250 -- --
CoverFEWCLRCLRCLRCLRCLRCLRCLRSCTBKNBKNSCTFEW
FltCatVFRVFRVFRVFRVFRVFRVFRVFRVFRVFRVFRVFRVFR
WX--------------------------
WDir30303040405050806011011010090
WSpd7 9 9 10 5 6 10 6 7 5 4 5 4
WGst-- -- -- -- -- -- -- -- -- -- -- -- --
Raw hourly METARs
KCLE 231951Z 03007KT 10SM FEW050 22/12 A3018 RMK AO2 SLP217 T02170122 $
KCLE 232051Z 03009KT 10SM CLR 22/13 A3017 RMK AO2 SLP216 T02170128 56013 $
KCLE 232151Z 03009KT 10SM CLR 21/13 A3018 RMK AO2 SLP218 T02060133 $
KCLE 232251Z 04010KT 10SM CLR 19/13 A3018 RMK AO2 SLP220 T01940133 $
KCLE 232351Z 04005KT 10SM CLR 18/14 A3019 RMK AO2 SLP222 T01780139 10217 20178 51005 $
KCLE 240051Z 05006KT 10SM CLR 18/13 A3020 RMK AO2 SLP226 T01780128 $
KCLE 240151Z 05010KT 10SM CLR 17/13 A3021 RMK AO2 SLP228 T01720128 $
KCLE 240251Z 08006KT 10SM CLR 16/13 A3023 RMK AO2 SLP235 T01610128 53015 $
KCLE 240351Z 06007KT 10SM SCT250 16/13 A3023 RMK AO2 SLP235 T01610128 $
KCLE 240451Z 11005KT 10SM BKN250 16/12 A3023 RMK AO2 SLP234 T01560122 402170094 $
KCLE 240551Z 11004KT 10SM BKN250 14/12 A3022 RMK AO2 SLP233 T01440122 10183 20139 58002 $
KCLE 240651Z 10005KT 10SM SCT250 15/12 A3021 RMK AO2 SLP228 T01500122 $
KCLE 240751Z 09004KT 10SM FEW250 14/12 A3021 RMK AO2 SLP226 T01440122 $



Page loaded:  08:10 UTC  |   01:10 AM Pacific  |   02:10 AM Mountain  |   03:10 AM Central  |   04:10 AM Eastern

 

ADVISORIES

FORECASTS

FORECASTS

OBSERVATIONS

USER TOOLS

ABOUT US